sensor_id;sensor_type;location;lat;lon;timestamp;pressure;altitude;pressure_sealevel;temperature;humidity
54876;BME280;40764;48.472;8.166;2023-11-21T00:01:24;97626.13;;;9.63;100.00
54876;BME280;40764;48.472;8.166;2023-11-21T00:07:24;97623.97;;;9.46;100.00
54876;BME280;40764;48.472;8.166;2023-11-21T00:13:25;97623.28;;;9.68;100.00
54876;BME280;40764;48.472;8.166;2023-11-21T00:19:25;97618.44;;;9.65;100.00
54876;BME280;40764;48.472;8.166;2023-11-21T00:25:25;97624.41;;;9.67;100.00
54876;BME280;40764;48.472;8.166;2023-11-21T00:31:25;97612.88;;;9.56;100.00
54876;BME280;40764;48.472;8.166;2023-11-21T00:37:26;97612.75;;;9.48;100.00
54876;BME280;40764;48.472;8.166;2023-11-21T00:43:26;97606.53;;;9.61;100.00
54876;BME280;40764;48.472;8.166;2023-11-21T00:49:26;97619.22;;;9.52;100.00
54876;BME280;40764;48.472;8.166;2023-11-21T00:55:28;97624.19;;;9.50;100.00
54876;BME280;40764;48.472;8.166;2023-11-21T01:01:29;97626.63;;;9.79;100.00
54876;BME280;40764;48.472;8.166;2023-11-21T01:07:30;97628.53;;;9.78;100.00
54876;BME280;40764;48.472;8.166;2023-11-21T01:13:30;97623.81;;;9.56;100.00
54876;BME280;40764;48.472;8.166;2023-11-21T01:19:30;97634.50;;;9.53;100.00
54876;BME280;40764;48.472;8.166;2023-11-21T01:25:31;97629.22;;;9.43;100.00
54876;BME280;40764;48.472;8.166;2023-11-21T01:31:31;97630.75;;;9.35;100.00
54876;BME280;40764;48.472;8.166;2023-11-21T01:37:32;97624.47;;;9.48;100.00
54876;BME280;40764;48.472;8.166;2023-11-21T01:43:32;97619.94;;;9.44;100.00
54876;BME280;40764;48.472;8.166;2023-11-21T01:49:33;97624.28;;;9.31;100.00
54876;BME280;40764;48.472;8.166;2023-11-21T01:55:34;97627.00;;;9.45;100.00
54876;BME280;40764;48.472;8.166;2023-11-21T02:01:34;97626.91;;;9.77;100.00
54876;BME280;40764;48.472;8.166;2023-11-21T02:07:34;97622.69;;;9.57;100.00
54876;BME280;40764;48.472;8.166;2023-11-21T02:13:35;97617.31;;;9.39;100.00
54876;BME280;40764;48.472;8.166;2023-11-21T02:19:35;97605.88;;;9.50;100.00
54876;BME280;40764;48.472;8.166;2023-11-21T02:25:35;97602.34;;;9.36;100.00
54876;BME280;40764;48.472;8.166;2023-11-21T02:31:37;97603.38;;;9.54;100.00
54876;BME280;40764;48.472;8.166;2023-11-21T02:37:45;97600.53;;;9.45;100.00
54876;BME280;40764;48.472;8.166;2023-11-21T02:43:45;97594.78;;;9.33;100.00
54876;BME280;40764;48.472;8.166;2023-11-21T02:49:46;97595.50;;;9.39;100.00
54876;BME280;40764;48.472;8.166;2023-11-21T02:55:46;97590.44;;;9.32;100.00
54876;BME280;40764;48.472;8.166;2023-11-21T03:01:46;97600.44;;;9.37;100.00
54876;BME280;40764;48.472;8.166;2023-11-21T03:07:47;97586.47;;;9.24;100.00
54876;BME280;40764;48.472;8.166;2023-11-21T03:13:47;97588.31;;;9.29;100.00
54876;BME280;40764;48.472;8.166;2023-11-21T03:19:47;97583.84;;;9.19;100.00
54876;BME280;40764;48.472;8.166;2023-11-21T03:25:48;97593.88;;;9.51;100.00
54876;BME280;40764;48.472;8.166;2023-11-21T03:31:48;97590.63;;;9.49;100.00
54876;BME280;40764;48.472;8.166;2023-11-21T03:37:48;97601.03;;;9.47;100.00
54876;BME280;40764;48.472;8.166;2023-11-21T03:43:48;97613.06;;;9.46;100.00
54876;BME280;40764;48.472;8.166;2023-11-21T03:49:49;97609.56;;;9.59;100.00
54876;BME280;40764;48.472;8.166;2023-11-21T03:55:49;97619.44;;;9.69;100.00
54876;BME280;40764;48.472;8.166;2023-11-21T04:01:50;97626.72;;;9.60;100.00
54876;BME280;40764;48.472;8.166;2023-11-21T04:07:50;97620.66;;;9.77;100.00
54876;BME280;40764;48.472;8.166;2023-11-21T04:13:51;97628.97;;;9.58;100.00
54876;BME280;40764;48.472;8.166;2023-11-21T04:19:51;97632.47;;;9.45;100.00
54876;BME280;40764;48.472;8.166;2023-11-21T04:25:51;97640.53;;;9.36;100.00
54876;BME280;40764;48.472;8.166;2023-11-21T04:31:54;97647.91;;;9.36;100.00
54876;BME280;40764;48.472;8.166;2023-11-21T04:37:54;97651.47;;;9.36;100.00
54876;BME280;40764;48.472;8.166;2023-11-21T04:43:54;97648.22;;;9.48;100.00
54876;BME280;40764;48.472;8.166;2023-11-21T04:49:55;97644.72;;;9.61;100.00
54876;BME280;40764;48.472;8.166;2023-11-21T04:55:55;97646.22;;;9.53;100.00
54876;BME280;40764;48.472;8.166;2023-11-21T05:01:55;97657.91;;;9.26;100.00
54876;BME280;40764;48.472;8.166;2023-11-21T05:07:56;97652.38;;;9.31;100.00
54876;BME280;40764;48.472;8.166;2023-11-21T05:13:56;97655.72;;;9.42;100.00
54876;BME280;40764;48.472;8.166;2023-11-21T05:19:58;97653.34;;;9.22;100.00
54876;BME280;40764;48.472;8.166;2023-11-21T05:25:58;97665.75;;;9.14;100.00
54876;BME280;40764;48.472;8.166;2023-11-21T05:31:59;97671.47;;;8.99;100.00
54876;BME280;40764;48.472;8.166;2023-11-21T05:37:59;97671.78;;;9.11;100.00
54876;BME280;40764;48.472;8.166;2023-11-21T05:43:59;97685.22;;;9.08;100.00
54876;BME280;40764;48.472;8.166;2023-11-21T05:50:01;97691.66;;;8.98;100.00
54876;BME280;40764;48.472;8.166;2023-11-21T05:56:01;97700.00;;;9.20;100.00
54876;BME280;40764;48.472;8.166;2023-11-21T06:02:02;97696.22;;;9.03;100.00
54876;BME280;40764;48.472;8.166;2023-11-21T06:08:02;97701.88;;;8.87;100.00
54876;BME280;40764;48.472;8.166;2023-11-21T06:14:03;97705.16;;;9.22;100.00
54876;BME280;40764;48.472;8.166;2023-11-21T06:20:04;97703.69;;;9.29;100.00
54876;BME280;40764;48.472;8.166;2023-11-21T06:26:09;97715.75;;;9.23;100.00
54876;BME280;40764;48.472;8.166;2023-11-21T06:32:09;97721.06;;;9.34;100.00
54876;BME280;40764;48.472;8.166;2023-11-21T06:38:10;97731.94;;;9.01;100.00
54876;BME280;40764;48.472;8.166;2023-11-21T06:44:10;97735.91;;;9.09;100.00
54876;BME280;40764;48.472;8.166;2023-11-21T06:50:11;97740.03;;;9.06;100.00
54876;BME280;40764;48.472;8.166;2023-11-21T06:56:18;97739.50;;;9.23;100.00
54876;BME280;40764;48.472;8.166;2023-11-21T07:02:18;97750.44;;;8.85;100.00
54876;BME280;40764;48.472;8.166;2023-11-21T07:08:18;97749.72;;;8.80;100.00
54876;BME280;40764;48.472;8.166;2023-11-21T07:14:19;97763.69;;;9.11;100.00
54876;BME280;40764;48.472;8.166;2023-11-21T07:20:19;97765.09;;;9.27;100.00
54876;BME280;40764;48.472;8.166;2023-11-21T07:26:20;97768.16;;;9.39;100.00
54876;BME280;40764;48.472;8.166;2023-11-21T07:32:20;97780.59;;;9.45;100.00
54876;BME280;40764;48.472;8.166;2023-11-21T07:38:20;97780.50;;;9.50;100.00
54876;BME280;40764;48.472;8.166;2023-11-21T07:44:21;97779.63;;;9.55;100.00
54876;BME280;40764;48.472;8.166;2023-11-21T07:50:22;97793.84;;;9.52;100.00
54876;BME280;40764;48.472;8.166;2023-11-21T07:56:23;97795.94;;;9.41;100.00
54876;BME280;40764;48.472;8.166;2023-11-21T08:02:23;97800.50;;;9.46;100.00
54876;BME280;40764;48.472;8.166;2023-11-21T08:08:24;97804.31;;;9.63;100.00
54876;BME280;40764;48.472;8.166;2023-11-21T08:14:24;97808.31;;;9.85;100.00
54876;BME280;40764;48.472;8.166;2023-11-21T08:20:25;97818.25;;;9.94;100.00
54876;BME280;40764;48.472;8.166;2023-11-21T08:26:25;97816.06;;;9.78;100.00
54876;BME280;40764;48.472;8.166;2023-11-21T08:32:26;97818.78;;;9.78;100.00
54876;BME280;40764;48.472;8.166;2023-11-21T08:38:26;97827.25;;;9.95;100.00
54876;BME280;40764;48.472;8.166;2023-11-21T08:44:26;97821.66;;;9.86;100.00
54876;BME280;40764;48.472;8.166;2023-11-21T08:50:27;97821.72;;;9.81;100.00
54876;BME280;40764;48.472;8.166;2023-11-21T08:56:27;97822.63;;;9.77;100.00
54876;BME280;40764;48.472;8.166;2023-11-21T09:02:27;97824.94;;;9.70;100.00
54876;BME280;40764;48.472;8.166;2023-11-21T09:08:28;97835.47;;;9.76;100.00
54876;BME280;40764;48.472;8.166;2023-11-21T09:14:29;97848.38;;;9.89;100.00
54876;BME280;40764;48.472;8.166;2023-11-21T09:20:29;97851.63;;;10.05;100.00
54876;BME280;40764;48.472;8.166;2023-11-21T09:26:30;97857.16;;;9.86;100.00
54876;BME280;40764;48.472;8.166;2023-11-21T09:32:30;97861.31;;;9.84;100.00
54876;BME280;40764;48.472;8.166;2023-11-21T09:38:31;97860.00;;;9.95;100.00
54876;BME280;40764;48.472;8.166;2023-11-21T09:51:04;97868.97;;;10.14;100.00
54876;BME280;40764;48.472;8.166;2023-11-21T09:57:05;97883.31;;;10.52;100.00
54876;BME280;40764;48.472;8.166;2023-11-21T10:03:05;97877.22;;;10.09;100.00
54876;BME280;40764;48.472;8.166;2023-11-21T10:09:10;97879.22;;;10.22;100.00
54876;BME280;40764;48.472;8.166;2023-11-21T10:15:12;97893.25;;;10.16;100.00
54876;BME280;40764;48.472;8.166;2023-11-21T10:21:16;97893.19;;;10.35;100.00
54876;BME280;40764;48.472;8.166;2023-11-21T10:27:17;97894.00;;;10.35;100.00
54876;BME280;40764;48.472;8.166;2023-11-21T10:33:17;97883.81;;;10.54;100.00
54876;BME280;40764;48.472;8.166;2023-11-21T10:39:19;97885.72;;;10.68;100.00
54876;BME280;40764;48.472;8.166;2023-11-21T10:45:19;97886.56;;;10.41;100.00
54876;BME280;40764;48.472;8.166;2023-11-21T10:51:21;97896.28;;;10.61;100.00
54876;BME280;40764;48.472;8.166;2023-11-21T10:57:22;97890.41;;;10.81;100.00
54876;BME280;40764;48.472;8.166;2023-11-21T11:03:23;97890.50;;;10.76;100.00
54876;BME280;40764;48.472;8.166;2023-11-21T11:09:24;97907.31;;;10.97;100.00
54876;BME280;40764;48.472;8.166;2023-11-21T11:15:25;97905.28;;;10.89;100.00
54876;BME280;40764;48.472;8.166;2023-11-21T11:28:00;97912.75;;;10.42;100.00
54876;BME280;40764;48.472;8.166;2023-11-21T11:34:38;97921.97;;;10.46;100.00
54876;BME280;40764;48.472;8.166;2023-11-21T11:40:46;97915.28;;;10.66;100.00
54876;BME280;40764;48.472;8.166;2023-11-21T11:46:47;97916.22;;;10.61;100.00
54876;BME280;40764;48.472;8.166;2023-11-21T11:58:49;97914.19;;;10.67;99.47
54876;BME280;40764;48.472;8.166;2023-11-21T12:04:55;97921.69;;;10.75;99.67
54876;BME280;40764;48.472;8.166;2023-11-21T12:10:57;97908.72;;;10.53;99.57
54876;BME280;40764;48.472;8.166;2023-11-21T12:16:57;97914.41;;;11.11;98.72
54876;BME280;40764;48.472;8.166;2023-11-21T12:23:00;97915.81;;;10.95;99.38
54876;BME280;40764;48.472;8.166;2023-11-21T12:29:00;97914.91;;;10.86;100.00
54876;BME280;40764;48.472;8.166;2023-11-21T12:35:03;97917.03;;;10.89;100.00
54876;BME280;40764;48.472;8.166;2023-11-21T12:41:06;97922.00;;;11.14;99.99
54876;BME280;40764;48.472;8.166;2023-11-21T12:47:10;97918.72;;;11.40;97.64
54876;BME280;40764;48.472;8.166;2023-11-21T12:53:15;97920.94;;;11.24;98.73
54876;BME280;40764;48.472;8.166;2023-11-21T12:59:16;97925.84;;;11.13;97.67
54876;BME280;40764;48.472;8.166;2023-11-21T13:05:30;97936.38;;;10.93;98.50
54876;BME280;40764;48.472;8.166;2023-11-21T13:11:34;97931.22;;;11.05;96.15
54876;BME280;40764;48.472;8.166;2023-11-21T13:17:34;97935.47;;;10.83;96.55
54876;BME280;40764;48.472;8.166;2023-11-21T13:23:35;97945.50;;;10.88;97.33
54876;BME280;40764;48.472;8.166;2023-11-21T13:29:38;97947.41;;;10.74;98.50
54876;BME280;40764;48.472;8.166;2023-11-21T13:35:38;97956.41;;;10.61;99.91
54876;BME280;40764;48.472;8.166;2023-11-21T13:41:42;97965.75;;;10.87;99.39
54876;BME280;40764;48.472;8.166;2023-11-21T13:47:43;97964.03;;;11.05;97.34
54876;BME280;40764;48.472;8.166;2023-11-21T13:53:46;97963.91;;;10.96;97.85
54876;BME280;40764;48.472;8.166;2023-11-21T13:59:49;97966.06;;;10.72;100.00
54876;BME280;40764;48.472;8.166;2023-11-21T14:05:51;97968.13;;;10.61;100.00
54876;BME280;40764;48.472;8.166;2023-11-21T14:11:52;97979.41;;;10.73;100.00
54876;BME280;40764;48.472;8.166;2023-11-21T14:17:53;97987.47;;;10.65;100.00
54876;BME280;40764;48.472;8.166;2023-11-21T14:23:54;97992.88;;;10.83;100.00
54876;BME280;40764;48.472;8.166;2023-11-21T14:29:55;97993.31;;;11.04;99.78
54876;BME280;40764;48.472;8.166;2023-11-21T14:35:57;98004.13;;;10.82;100.00
54876;BME280;40764;48.472;8.166;2023-11-21T14:41:57;98007.47;;;10.79;99.65
54876;BME280;40764;48.472;8.166;2023-11-21T14:48:00;98014.16;;;10.73;99.61
54876;BME280;40764;48.472;8.166;2023-11-21T14:54:06;98026.78;;;10.69;100.00
54876;BME280;40764;48.472;8.166;2023-11-21T15:00:07;98028.53;;;10.78;99.74
54876;BME280;40764;48.472;8.166;2023-11-21T15:06:27;98033.94;;;10.65;99.57
54876;BME280;40764;48.472;8.166;2023-11-21T15:12:30;98034.47;;;10.67;100.00
54876;BME280;40764;48.472;8.166;2023-11-21T15:18:34;98043.09;;;10.41;100.00
54876;BME280;40764;48.472;8.166;2023-11-21T15:24:35;98062.00;;;10.38;100.00
54876;BME280;40764;48.472;8.166;2023-11-21T15:30:35;98058.81;;;10.49;100.00
54876;BME280;40764;48.472;8.166;2023-11-21T15:36:36;98062.81;;;10.38;100.00
54876;BME280;40764;48.472;8.166;2023-11-21T15:42:37;98063.41;;;10.16;100.00
54876;BME280;40764;48.472;8.166;2023-11-21T15:48:37;98069.00;;;10.06;100.00
54876;BME280;40764;48.472;8.166;2023-11-21T15:54:40;98071.25;;;10.23;100.00
54876;BME280;40764;48.472;8.166;2023-11-21T16:00:41;98078.06;;;10.02;100.00
54876;BME280;40764;48.472;8.166;2023-11-21T16:06:45;98081.13;;;10.19;100.00
54876;BME280;40764;48.472;8.166;2023-11-21T16:12:47;98093.97;;;10.18;100.00
54876;BME280;40764;48.472;8.166;2023-11-21T16:18:47;98100.94;;;10.06;100.00
54876;BME280;40764;48.472;8.166;2023-11-21T16:24:47;98115.13;;;10.08;100.00
54876;BME280;40764;48.472;8.166;2023-11-21T16:30:49;98121.19;;;10.05;100.00
54876;BME280;40764;48.472;8.166;2023-11-21T16:36:50;98136.53;;;9.77;100.00
54876;BME280;40764;48.472;8.166;2023-11-21T16:42:51;98146.06;;;10.03;100.00
54876;BME280;40764;48.472;8.166;2023-11-21T16:48:51;98150.34;;;10.09;100.00
54876;BME280;40764;48.472;8.166;2023-11-21T16:54:51;98162.88;;;10.10;100.00
54876;BME280;40764;48.472;8.166;2023-11-21T17:00:51;98174.00;;;10.19;100.00
54876;BME280;40764;48.472;8.166;2023-11-21T17:06:53;98178.75;;;10.08;100.00
54876;BME280;40764;48.472;8.166;2023-11-21T17:12:53;98191.81;;;10.11;100.00
54876;BME280;40764;48.472;8.166;2023-11-21T17:18:53;98202.22;;;10.09;100.00
54876;BME280;40764;48.472;8.166;2023-11-21T17:24:53;98217.28;;;10.07;100.00
54876;BME280;40764;48.472;8.166;2023-11-21T17:30:54;98214.03;;;10.05;100.00
54876;BME280;40764;48.472;8.166;2023-11-21T17:36:54;98222.16;;;10.10;100.00
54876;BME280;40764;48.472;8.166;2023-11-21T17:42:55;98234.25;;;10.04;100.00
54876;BME280;40764;48.472;8.166;2023-11-21T17:48:56;98232.47;;;10.18;100.00
54876;BME280;40764;48.472;8.166;2023-11-21T17:54:56;98247.75;;;10.19;100.00
54876;BME280;40764;48.472;8.166;2023-11-21T18:00:57;98257.38;;;10.11;100.00
54876;BME280;40764;48.472;8.166;2023-11-21T18:06:57;98262.56;;;10.13;100.00
54876;BME280;40764;48.472;8.166;2023-11-21T18:12:58;98262.97;;;10.01;100.00
54876;BME280;40764;48.472;8.166;2023-11-21T18:18:58;98282.13;;;9.96;100.00
54876;BME280;40764;48.472;8.166;2023-11-21T18:24:59;98281.63;;;9.94;100.00
54876;BME280;40764;48.472;8.166;2023-11-21T18:31:00;98282.78;;;9.59;100.00
54876;BME280;40764;48.472;8.166;2023-11-21T18:37:00;98297.00;;;9.85;100.00
54876;BME280;40764;48.472;8.166;2023-11-21T18:43:00;98293.13;;;9.91;100.00
54876;BME280;40764;48.472;8.166;2023-11-21T18:49:01;98304.84;;;9.62;100.00
54876;BME280;40764;48.472;8.166;2023-11-21T18:55:02;98306.41;;;9.40;100.00
54876;BME280;40764;48.472;8.166;2023-11-21T19:01:03;98319.50;;;9.38;100.00
54876;BME280;40764;48.472;8.166;2023-11-21T19:07:03;98332.72;;;9.25;100.00
54876;BME280;40764;48.472;8.166;2023-11-21T19:13:05;98331.47;;;9.42;100.00
54876;BME280;40764;48.472;8.166;2023-11-21T19:19:06;98342.53;;;9.60;100.00
54876;BME280;40764;48.472;8.166;2023-11-21T19:25:07;98339.28;;;9.53;100.00
54876;BME280;40764;48.472;8.166;2023-11-21T19:31:19;98341.16;;;9.63;100.00
54876;BME280;40764;48.472;8.166;2023-11-21T19:37:19;98348.06;;;9.50;100.00
54876;BME280;40764;48.472;8.166;2023-11-21T19:43:19;98365.03;;;9.42;100.00
54876;BME280;40764;48.472;8.166;2023-11-21T19:49:20;98363.13;;;9.43;100.00
54876;BME280;40764;48.472;8.166;2023-11-21T19:55:20;98381.66;;;9.46;100.00
54876;BME280;40764;48.472;8.166;2023-11-21T20:01:21;98388.44;;;9.48;100.00
54876;BME280;40764;48.472;8.166;2023-11-21T20:07:21;98394.31;;;9.31;100.00
54876;BME280;40764;48.472;8.166;2023-11-21T20:13:23;98405.50;;;9.30;100.00
54876;BME280;40764;48.472;8.166;2023-11-21T20:19:23;98415.06;;;9.22;100.00
54876;BME280;40764;48.472;8.166;2023-11-21T20:25:27;98419.56;;;9.03;100.00
54876;BME280;40764;48.472;8.166;2023-11-21T20:31:27;98425.16;;;9.27;100.00
54876;BME280;40764;48.472;8.166;2023-11-21T20:37:28;98425.22;;;9.12;100.00
54876;BME280;40764;48.472;8.166;2023-11-21T20:43:28;98437.22;;;9.11;100.00
54876;BME280;40764;48.472;8.166;2023-11-21T20:49:28;98445.66;;;9.14;100.00
54876;BME280;40764;48.472;8.166;2023-11-21T20:55:28;98447.56;;;9.19;100.00
54876;BME280;40764;48.472;8.166;2023-11-21T21:01:29;98434.22;;;9.12;100.00
54876;BME280;40764;48.472;8.166;2023-11-21T21:07:29;98443.84;;;8.99;100.00
54876;BME280;40764;48.472;8.166;2023-11-21T21:13:30;98443.91;;;8.79;100.00
54876;BME280;40764;48.472;8.166;2023-11-21T21:19:32;98442.75;;;8.95;100.00
54876;BME280;40764;48.472;8.166;2023-11-21T21:25:32;98450.13;;;8.90;100.00
54876;BME280;40764;48.472;8.166;2023-11-21T21:31:33;98464.84;;;8.89;100.00
54876;BME280;40764;48.472;8.166;2023-11-21T21:37:33;98461.63;;;8.82;100.00
54876;BME280;40764;48.472;8.166;2023-11-21T21:43:34;98461.88;;;8.85;100.00
54876;BME280;40764;48.472;8.166;2023-11-21T21:49:34;98460.19;;;8.99;100.00
54876;BME280;40764;48.472;8.166;2023-11-21T21:55:34;98456.16;;;8.82;100.00
54876;BME280;40764;48.472;8.166;2023-11-21T22:01:34;98469.78;;;8.82;100.00
54876;BME280;40764;48.472;8.166;2023-11-21T22:07:38;98471.16;;;8.84;100.00
54876;BME280;40764;48.472;8.166;2023-11-21T22:13:39;98475.53;;;8.75;100.00
54876;BME280;40764;48.472;8.166;2023-11-21T22:19:39;98473.00;;;9.04;100.00
54876;BME280;40764;48.472;8.166;2023-11-21T22:25:41;98477.31;;;9.10;100.00
54876;BME280;40764;48.472;8.166;2023-11-21T22:31:41;98476.00;;;9.03;100.00
54876;BME280;40764;48.472;8.166;2023-11-21T22:37:42;98480.91;;;9.00;100.00
54876;BME280;40764;48.472;8.166;2023-11-21T22:43:44;98481.13;;;9.14;100.00
54876;BME280;40764;48.472;8.166;2023-11-21T22:49:44;98481.72;;;9.06;100.00
54876;BME280;40764;48.472;8.166;2023-11-21T22:55:44;98482.31;;;8.88;100.00
54876;BME280;40764;48.472;8.166;2023-11-21T23:01:48;98487.72;;;9.03;100.00
54876;BME280;40764;48.472;8.166;2023-11-21T23:07:50;98498.09;;;9.01;100.00
54876;BME280;40764;48.472;8.166;2023-11-21T23:13:50;98506.56;;;8.99;100.00
54876;BME280;40764;48.472;8.166;2023-11-21T23:19:50;98511.50;;;8.82;100.00
54876;BME280;40764;48.472;8.166;2023-11-21T23:25:51;98515.00;;;8.93;100.00
54876;BME280;40764;48.472;8.166;2023-11-21T23:31:51;98502.22;;;8.83;100.00
54876;BME280;40764;48.472;8.166;2023-11-21T23:37:52;98497.63;;;8.74;100.00
54876;BME280;40764;48.472;8.166;2023-11-21T23:43:52;98507.38;;;8.90;100.00
54876;BME280;40764;48.472;8.166;2023-11-21T23:49:52;98495.94;;;8.88;100.00
54876;BME280;40764;48.472;8.166;2023-11-21T23:55:53;98497.38;;;8.70;100.00
